Time;durP1;ratioP1;P1;durP2;ratioP2;P2;SDS_P1;SDS_P2;PMS_P1;PMS_P2;Temp;Humidity;BMP_temperature;BMP_pressure;BME280_temperature;BME280_humidity;BME280_pressure;Samples;Min_cycle;Max_cycle;Signal;HPM_P1;HPM_P2
2024/02/04 00:01:41;;;;;;;24.13;13.20;;;8.00;99.90;;;;;;5052693;28;20457;-59
2024/02/04 00:04:06;;;;;;;6.63;2.50;;;8.00;99.90;;;;;;5049560;28;20475;-59
2024/02/04 00:06:32;;;;;;;6.90;1.97;;;8.00;99.90;;;;;;5051791;28;20953;-59
2024/02/04 00:08:58;;;;;;;7.23;2.43;;;8.00;99.90;;;;;;5050893;28;20424;-59
2024/02/04 00:11:24;;;;;;;7.87;3.60;;;8.00;99.90;;;;;;5053896;28;20181;-59
2024/02/04 00:13:49;;;;;;;4.30;2.07;;;7.90;99.90;;;;;;5055150;28;20639;-58
2024/02/04 00:16:15;;;;;;;5.40;2.17;;;8.00;99.90;;;;;;5061521;28;20623;-59
2024/02/04 00:18:41;;;;;;;5.13;2.10;;;8.00;99.90;;;;;;5053341;28;20185;-58
2024/02/04 00:21:06;;;;;;;9.10;1.90;;;8.00;99.90;;;;;;5053578;28;20212;-59
2024/02/04 00:23:32;;;;;;;6.37;2.60;;;8.00;99.90;;;;;;5061611;28;20185;-59
2024/02/04 00:25:57;;;;;;;5.33;1.87;;;7.90;99.90;;;;;;5053425;28;20174;-59
2024/02/04 00:28:23;;;;;;;7.20;2.47;;;8.00;99.90;;;;;;5053083;28;20649;-60
2024/02/04 00:30:49;;;;;;;2.70;1.73;;;7.90;99.90;;;;;;5053161;28;20294;-60
2024/02/04 00:33:15;;;;;;;6.10;2.43;;;7.90;99.90;;;;;;5053291;28;20919;-60
2024/02/04 00:35:41;;;;;;;5.43;2.60;;;7.90;99.90;;;;;;5053314;28;20414;-60
2024/02/04 00:38:08;;;;;;;5.47;1.83;;;7.90;99.90;;;;;;5053041;28;20440;-60
2024/02/04 00:40:34;;;;;;;4.90;1.77;;;7.80;99.90;;;;;;5052994;28;20424;-63
2024/02/04 00:43:00;;;;;;;9.30;2.93;;;7.80;99.90;;;;;;5049823;28;20439;-60
2024/02/04 00:45:25;;;;;;;11.03;3.00;;;7.80;99.90;;;;;;5052949;28;20176;-60
2024/02/04 00:47:51;;;;;;;7.90;2.63;;;7.70;99.90;;;;;;5056579;28;20481;-60
2024/02/04 00:50:17;;;;;;;8.80;2.43;;;7.60;99.90;;;;;;5053036;28;20223;-60
2024/02/04 00:52:42;;;;;;;7.57;2.10;;;7.60;99.90;;;;;;5052183;28;20184;-60
2024/02/04 00:55:08;;;;;;;12.30;2.43;;;7.50;99.90;;;;;;5053325;28;20262;-59
2024/02/04 00:57:34;;;;;;;10.23;2.53;;;7.40;99.90;;;;;;5060385;28;20205;-59
2024/02/04 00:59:59;;;;;;;14.90;3.93;;;7.30;99.90;;;;;;5050495;28;20435;-60
2024/02/04 01:02:25;;;;;;;15.60;1.93;;;7.20;99.90;;;;;;5041245;28;20199;-58
2024/02/04 01:04:51;;;;;;;10.97;3.07;;;7.20;99.90;;;;;;5052424;28;20171;-59
2024/02/04 01:07:17;;;;;;;7.33;2.20;;;7.10;99.90;;;;;;5048201;28;20687;-59
2024/02/04 01:09:42;;;;;;;5.43;2.00;;;7.00;99.90;;;;;;5052745;28;20415;-60
2024/02/04 01:12:08;;;;;;;8.20;2.20;;;7.10;99.90;;;;;;5044082;28;20231;-58
2024/02/04 01:14:34;;;;;;;10.10;2.50;;;6.90;99.90;;;;;;5049956;28;20225;-60
2024/02/04 01:17:00;;;;;;;4.87;2.60;;;6.90;99.90;;;;;;5051811;28;20448;-60
2024/02/04 01:19:25;;;;;;;5.53;2.63;;;6.90;99.90;;;;;;5043901;28;20190;-60
2024/02/04 01:21:51;;;;;;;6.70;2.30;;;6.80;99.90;;;;;;5055870;28;20537;-60
2024/02/04 01:24:16;;;;;;;5.13;2.03;;;6.80;99.90;;;;;;5053585;28;20245;-60
2024/02/04 01:26:42;;;;;;;5.50;1.90;;;6.80;99.90;;;;;;5052048;28;20283;-59
2024/02/04 01:29:08;;;;;;;13.90;2.73;;;6.80;99.90;;;;;;5052092;28;20179;-60
2024/02/04 01:31:34;;;;;;;10.67;2.63;;;6.90;99.90;;;;;;5051982;28;20257;-60
2024/02/04 01:33:59;;;;;;;5.90;2.97;;;6.90;99.90;;;;;;5052195;28;20476;-60
2024/02/04 01:36:25;;;;;;;5.80;1.87;;;6.90;99.90;;;;;;5051559;28;20192;-59
2024/02/04 01:38:51;;;;;;;9.07;2.20;;;6.90;99.90;;;;;;5052219;28;20183;-59
2024/02/04 01:41:16;;;;;;;6.70;2.63;;;6.90;99.90;;;;;;5051717;28;20202;-59
2024/02/04 01:43:42;;;;;;;6.43;2.00;;;6.80;99.90;;;;;;5051600;28;20199;-59
2024/02/04 01:46:08;;;;;;;4.40;1.70;;;6.70;99.90;;;;;;5045066;28;20168;-59
2024/02/04 01:48:34;;;;;;;7.50;1.70;;;6.70;99.90;;;;;;5051563;28;20176;-60
2024/02/04 01:51:01;;;;;;;7.70;2.40;;;6.70;99.90;;;;;;5045728;28;20796;-60
2024/02/04 01:53:28;;;;;;;6.97;3.37;;;6.60;99.90;;;;;;5051564;28;20178;-60
2024/02/04 01:55:55;;;;;;;13.90;3.87;;;6.50;99.90;;;;;;5051767;28;20959;-59
2024/02/04 01:58:22;;;;;;;8.00;2.57;;;6.40;99.90;;;;;;5051308;28;20419;-59
2024/02/04 02:00:49;;;;;;;9.97;3.00;;;6.50;99.90;;;;;;5033756;28;20433;-59
2024/02/04 02:03:16;;;;;;;3.60;2.40;;;6.50;99.90;;;;;;5049784;28;20421;-59
2024/02/04 02:05:42;;;;;;;10.83;3.10;;;6.50;99.90;;;;;;5050905;28;20416;-59
2024/02/04 02:08:08;;;;;;;7.73;2.33;;;6.50;99.90;;;;;;5051397;28;20511;-59
2024/02/04 02:10:34;;;;;;;5.77;2.60;;;6.50;99.90;;;;;;5049851;28;20511;-59
2024/02/04 02:13:09;;;;;;;12.40;3.00;;;6.40;99.90;;;;;;5051392;28;20871;-60
2024/02/04 02:15:40;;;;;;;4.07;1.80;;;6.30;99.90;;;;;;5051365;28;20476;-60
2024/02/04 02:18:47;;;;;;;9.00;2.80;;;6.30;99.90;;;;;;5051077;28;20430;-60
2024/02/04 02:21:46;;;;;;;4.17;1.70;;;6.40;99.90;;;;;;4989626;28;20540;-60
2024/02/04 02:24:26;;;;;;;5.67;2.30;;;6.30;99.90;;;;;;5045231;28;20787;-59
2024/02/04 02:26:53;;;;;;;7.67;4.07;;;6.30;99.90;;;;;;5045895;28;20835;-60
2024/02/04 02:29:18;;;;;;;6.60;2.63;;;6.40;99.90;;;;;;5040836;28;20418;-60
2024/02/04 02:31:45;;;;;;;10.73;3.33;;;6.30;99.90;;;;;;5042275;28;20410;-60
2024/02/04 02:34:11;;;;;;;12.03;2.97;;;6.30;99.90;;;;;;5044247;28;20491;-59
2024/02/04 02:36:45;;;;;;;6.43;2.77;;;6.20;99.90;;;;;;5042640;28;20445;-60
2024/02/04 02:39:21;;;;;;;15.43;2.53;;;6.20;99.90;;;;;;5042144;28;20939;-60
2024/02/04 02:41:51;;;;;;;7.97;2.53;;;6.30;99.90;;;;;;5041653;28;20469;-60
2024/02/04 02:44:17;;;;;;;11.13;3.40;;;6.20;99.90;;;;;;5045558;28;20486;-60
2024/02/04 02:46:43;;;;;;;9.93;2.30;;;6.30;99.90;;;;;;5044131;28;20427;-60
2024/02/04 02:49:09;;;;;;;3.93;2.60;;;6.40;99.90;;;;;;5044107;28;20453;-59
2024/02/04 02:51:35;;;;;;;10.80;2.23;;;6.40;99.90;;;;;;5043727;28;20446;-60
2024/02/04 02:54:01;;;;;;;6.10;2.60;;;6.40;99.90;;;;;;5044543;28;20504;-60
2024/02/04 02:56:26;;;;;;;14.97;3.67;;;6.40;99.90;;;;;;5047139;28;20204;-59
2024/02/04 02:58:55;;;;;;;6.40;2.37;;;6.40;99.90;;;;;;5043532;28;20181;-60
2024/02/04 03:01:21;;;;;;;6.93;2.40;;;6.50;99.90;;;;;;5026178;28;20291;-59
2024/02/04 03:03:46;;;;;;;7.40;2.77;;;6.50;99.90;;;;;;5044193;28;20518;-60
2024/02/04 03:06:12;;;;;;;10.30;2.60;;;6.50;99.90;;;;;;5044949;28;20187;-59
2024/02/04 03:08:37;;;;;;;12.03;4.43;;;6.60;99.90;;;;;;5045682;28;20169;-59
2024/02/04 03:11:03;;;;;;;7.80;3.63;;;6.60;99.90;;;;;;5043820;28;20185;-60
2024/02/04 03:13:30;;;;;;;3.50;2.30;;;6.60;99.90;;;;;;5043722;28;20216;-59
2024/02/04 03:15:55;;;;;;;4.83;2.00;;;6.70;99.90;;;;;;5045065;28;20187;-60
2024/02/04 03:18:21;;;;;;;6.97;3.27;;;6.70;99.90;;;;;;5045912;28;20518;-58
2024/02/04 03:20:47;;;;;;;3.30;2.67;;;6.70;99.90;;;;;;5048057;28;20721;-58
2024/02/04 03:23:12;;;;;;;11.40;2.63;;;6.70;99.90;;;;;;5047002;28;20199;-60
2024/02/04 03:25:38;;;;;;;11.70;2.50;;;6.80;99.90;;;;;;5046589;28;20285;-58
2024/02/04 03:28:04;;;;;;;6.23;2.57;;;6.80;99.90;;;;;;5047317;28;20243;-60
2024/02/04 03:30:30;;;;;;;11.50;2.43;;;6.90;99.90;;;;;;5046815;28;20178;-59
2024/02/04 03:32:55;;;;;;;4.90;2.43;;;6.90;99.90;;;;;;5048065;28;20428;-59
2024/02/04 03:35:21;;;;;;;4.37;2.90;;;6.80;99.90;;;;;;5046352;28;20678;-58
2024/02/04 03:37:47;;;;;;;7.40;2.67;;;6.80;99.90;;;;;;5045831;28;20212;-58
2024/02/04 03:40:12;;;;;;;6.77;3.10;;;6.90;99.90;;;;;;5047740;28;20424;-60
2024/02/04 03:42:40;;;;;;;10.70;3.13;;;6.90;99.90;;;;;;5051007;28;20700;-59
2024/02/04 03:45:06;;;;;;;4.43;2.70;;;6.90;99.90;;;;;;5049150;28;20178;-57
2024/02/04 03:47:32;;;;;;;5.10;2.40;;;6.90;99.90;;;;;;5049531;28;20437;-60
2024/02/04 03:49:57;;;;;;;10.53;3.00;;;6.90;99.90;;;;;;5050240;28;20412;-60
2024/02/04 03:52:23;;;;;;;7.97;3.10;;;6.90;99.90;;;;;;5047610;28;20307;-60
2024/02/04 03:54:48;;;;;;;4.97;2.60;;;6.90;99.90;;;;;;5046537;28;20208;-60
2024/02/04 03:57:14;;;;;;;8.03;2.20;;;7.00;99.90;;;;;;5047100;28;20202;-60
2024/02/04 03:59:39;;;;;;;6.43;2.40;;;7.00;99.90;;;;;;5042505;28;20208;-60
2024/02/04 04:02:05;;;;;;;15.60;3.90;;;6.90;99.90;;;;;;5026183;28;20619;-59
2024/02/04 04:04:30;;;;;;;5.27;3.03;;;6.90;99.90;;;;;;5045707;28;20206;-58
2024/02/04 04:06:56;;;;;;;4.73;2.67;;;6.90;99.90;;;;;;5045567;28;20214;-59
2024/02/04 04:09:22;;;;;;;3.07;2.67;;;6.80;99.90;;;;;;5044540;28;20180;-55
2024/02/04 04:11:47;;;;;;;11.70;3.23;;;6.80;99.90;;;;;;5043953;28;20748;-58
2024/02/04 04:14:13;;;;;;;2.90;2.57;;;6.70;99.90;;;;;;5043216;28;20175;-57
2024/02/04 04:16:38;;;;;;;9.20;3.07;;;6.60;99.90;;;;;;5042308;28;20243;-58
2024/02/04 04:19:04;;;;;;;10.80;2.93;;;6.60;99.90;;;;;;5045439;28;20611;-58
2024/02/04 04:21:29;;;;;;;5.43;2.83;;;6.60;99.90;;;;;;5042639;28;20258;-59
2024/02/04 04:23:55;;;;;;;9.53;2.40;;;6.60;99.90;;;;;;5045106;28;20216;-59
2024/02/04 04:26:21;;;;;;;5.13;2.67;;;6.50;99.90;;;;;;5043545;28;20222;-59
2024/02/04 04:28:46;;;;;;;6.00;2.43;;;6.50;99.90;;;;;;5045286;28;20618;-59
2024/02/04 04:31:12;;;;;;;4.20;2.70;;;6.40;99.90;;;;;;5042567;28;20208;-59
2024/02/04 04:33:37;;;;;;;5.23;2.90;;;6.40;99.90;;;;;;5028007;28;20185;-59
2024/02/04 04:36:03;;;;;;;4.57;2.57;;;6.50;99.90;;;;;;5044876;28;20263;-58
2024/02/04 04:38:29;;;;;;;7.23;2.73;;;6.50;99.90;;;;;;5042702;28;20219;-59
2024/02/04 04:40:54;;;;;;;6.77;2.60;;;6.40;99.90;;;;;;5016102;28;20203;-59
2024/02/04 04:43:20;;;;;;;11.83;3.40;;;6.40;99.90;;;;;;5043165;28;20181;-59
2024/02/04 04:45:45;;;;;;;5.80;3.60;;;6.40;99.90;;;;;;5045666;28;20306;-58
2024/02/04 04:48:11;;;;;;;2.53;2.33;;;6.30;99.90;;;;;;5042917;28;20192;-58
2024/02/04 04:50:36;;;;;;;8.20;2.60;;;6.40;99.90;;;;;;5043371;28;20185;-58
2024/02/04 04:53:02;;;;;;;3.77;2.47;;;6.40;99.90;;;;;;5045403;28;20197;-58
2024/02/04 04:55:28;;;;;;;5.67;2.40;;;6.30;99.90;;;;;;5042670;28;20274;-58
2024/02/04 04:57:53;;;;;;;6.80;2.40;;;6.30;99.90;;;;;;5044264;28;20208;-60
2024/02/04 05:00:19;;;;;;;12.20;3.77;;;6.30;99.90;;;;;;5044517;28;20176;-59
2024/02/04 05:02:45;;;;;;;9.57;2.83;;;6.30;99.90;;;;;;5043987;28;20205;-59
2024/02/04 05:05:11;;;;;;;3.93;2.93;;;6.40;99.90;;;;;;5045187;28;21076;-59
2024/02/04 05:07:37;;;;;;;12.30;2.80;;;6.30;99.90;;;;;;5043817;28;20459;-59
2024/02/04 05:10:03;;;;;;;3.40;2.50;;;6.30;99.90;;;;;;5045247;28;20437;-60
2024/02/04 05:12:30;;;;;;;5.40;2.47;;;6.20;99.90;;;;;;5042130;28;20474;-60
2024/02/04 05:14:55;;;;;;;3.90;2.43;;;6.20;99.90;;;;;;5026098;28;20474;-59
2024/02/04 05:17:21;;;;;;;6.07;2.53;;;6.20;99.90;;;;;;5043304;28;20471;-59
2024/02/04 05:19:47;;;;;;;4.60;2.80;;;6.20;99.90;;;;;;5042628;28;20715;-60
2024/02/04 05:22:12;;;;;;;7.40;2.37;;;6.20;99.90;;;;;;5042498;28;20512;-60
2024/02/04 05:24:38;;;;;;;8.73;3.10;;;6.10;99.90;;;;;;5043810;28;20180;-57
2024/02/04 05:27:04;;;;;;;6.63;2.50;;;6.10;99.90;;;;;;5043748;28;20197;-59
2024/02/04 05:29:31;;;;;;;4.43;2.90;;;6.10;99.90;;;;;;5042179;28;20635;-59
2024/02/04 05:31:56;;;;;;;5.17;1.70;;;6.10;99.90;;;;;;5045010;28;20764;-59
2024/02/04 05:34:22;;;;;;;6.80;2.03;;;6.10;99.90;;;;;;5044402;28;20423;-59
2024/02/04 05:36:48;;;;;;;5.17;2.37;;;6.20;99.90;;;;;;5043307;28;21826;-59
2024/02/04 05:39:14;;;;;;;7.10;3.20;;;6.20;99.90;;;;;;5043604;28;20188;-58
2024/02/04 05:41:41;;;;;;;6.63;2.37;;;6.20;99.90;;;;;;5040552;28;20200;-57
2024/02/04 05:44:08;;;;;;;5.10;2.90;;;6.10;99.90;;;;;;5044566;28;20414;-59
2024/02/04 05:46:38;;;;;;;5.73;2.90;;;6.10;99.90;;;;;;5045297;28;20436;-59
2024/02/04 05:49:04;;;;;;;4.23;2.60;;;6.20;99.90;;;;;;5043667;28;21007;-60
2024/02/04 05:51:32;;;;;;;7.33;2.60;;;6.10;99.90;;;;;;5042855;28;20451;-56
2024/02/04 05:53:57;;;;;;;7.87;2.80;;;6.20;99.90;;;;;;5046742;28;20423;-60
2024/02/04 05:56:23;;;;;;;7.07;4.60;;;6.10;99.90;;;;;;5042670;28;20438;-58
2024/02/04 05:58:49;;;;;;;3.20;2.27;;;6.00;99.90;;;;;;5043548;28;20809;-58
2024/02/04 06:01:16;;;;;;;3.20;2.40;;;6.00;99.90;;;;;;5026882;28;20545;-59
2024/02/04 06:03:43;;;;;;;3.50;2.00;;;6.00;99.90;;;;;;5041481;28;20207;-59
2024/02/04 06:06:09;;;;;;;6.57;2.30;;;6.10;99.90;;;;;;5042780;28;21004;-59
2024/02/04 06:08:34;;;;;;;5.13;2.90;;;6.10;99.90;;;;;;5025593;28;20515;-58
2024/02/04 06:11:00;;;;;;;6.97;2.40;;;6.00;99.90;;;;;;5043711;28;20754;-58
2024/02/04 06:13:26;;;;;;;6.33;3.70;;;6.00;99.90;;;;;;5044298;28;20190;-57
2024/02/04 06:15:51;;;;;;;3.80;2.40;;;6.20;99.90;;;;;;5044448;28;20195;-59
2024/02/04 06:18:17;;;;;;;5.13;1.70;;;6.30;99.90;;;;;;5043873;28;20231;-60
2024/02/04 06:20:43;;;;;;;5.53;2.83;;;6.30;99.90;;;;;;5043108;28;20184;-60
2024/02/04 06:23:08;;;;;;;5.30;3.00;;;6.30;99.90;;;;;;5046759;28;20455;-60
2024/02/04 06:25:34;;;;;;;9.23;2.53;;;6.30;99.90;;;;;;5042906;28;20181;-58
2024/02/04 06:27:59;;;;;;;7.33;3.30;;;6.30;99.90;;;;;;5044581;28;20257;-58
2024/02/04 06:30:25;;;;;;;7.50;2.50;;;6.30;99.90;;;;;;5044406;28;20181;-59
2024/02/04 06:32:51;;;;;;;6.63;2.60;;;6.30;99.90;;;;;;5044978;28;20256;-58
2024/02/04 06:35:16;;;;;;;2.83;2.53;;;6.20;99.90;;;;;;5043284;28;20172;-59
2024/02/04 06:37:45;;;;;;;7.43;2.93;;;6.30;99.90;;;;;;5043652;28;20213;-60
2024/02/04 06:40:11;;;;;;;11.20;3.33;;;6.30;99.90;;;;;;5043790;28;20193;-59
2024/02/04 06:42:37;;;;;;;7.43;3.37;;;6.10;99.90;;;;;;5042463;28;20455;-60
2024/02/04 06:45:02;;;;;;;3.93;2.57;;;6.10;99.90;;;;;;5043146;28;21236;-60
2024/02/04 06:47:28;;;;;;;10.13;2.90;;;6.20;99.90;;;;;;5044049;28;20199;-59
2024/02/04 06:49:54;;;;;;;7.10;2.50;;;6.30;99.90;;;;;;5043491;28;20178;-59
2024/02/04 06:52:20;;;;;;;7.23;3.10;;;6.20;99.90;;;;;;5047334;28;20414;-60
2024/02/04 06:54:45;;;;;;;3.33;2.63;;;6.20;99.90;;;;;;5045885;28;20203;-60
2024/02/04 06:57:11;;;;;;;10.03;3.13;;;6.20;99.90;;;;;;5033252;28;20605;-60
2024/02/04 06:59:36;;;;;;;9.20;3.43;;;6.20;99.90;;;;;;5044491;28;20184;-60
2024/02/04 07:02:02;;;;;;;6.33;2.77;;;6.20;99.90;;;;;;5044172;28;20215;-61
2024/02/04 07:04:28;;;;;;;6.60;3.30;;;6.20;99.90;;;;;;5044637;28;20257;-57
2024/02/04 07:06:53;;;;;;;7.37;3.00;;;6.30;99.90;;;;;;5045152;28;20470;-60
2024/02/04 07:09:19;;;;;;;4.90;4.30;;;6.30;99.90;;;;;;5045182;28;20175;-60
2024/02/04 07:11:45;;;;;;;4.80;3.63;;;6.40;99.90;;;;;;5045445;28;20172;-60
2024/02/04 07:14:11;;;;;;;7.50;4.20;;;6.40;99.90;;;;;;5045970;28;20176;-60
2024/02/04 07:16:36;;;;;;;5.47;3.53;;;6.40;99.90;;;;;;5045894;28;20658;-60
2024/02/04 07:19:02;;;;;;;6.67;3.97;;;6.40;99.90;;;;;;5045741;28;20419;-60
2024/02/04 07:21:28;;;;;;;6.43;4.10;;;6.40;99.90;;;;;;5044192;28;20199;-60
2024/02/04 07:23:53;;;;;;;4.50;3.13;;;6.40;99.90;;;;;;5044599;28;20192;-59
2024/02/04 07:26:19;;;;;;;17.07;6.63;;;6.40;99.90;;;;;;5044171;28;20196;-58
2024/02/04 07:28:45;;;;;;;5.50;4.10;;;6.40;99.90;;;;;;5044109;28;20176;-58
2024/02/04 07:31:11;;;;;;;6.20;3.80;;;6.50;99.90;;;;;;5047406;28;20642;-60
2024/02/04 07:33:36;;;;;;;7.63;4.53;;;6.50;99.90;;;;;;5047122;28;20179;-59
2024/02/04 07:36:02;;;;;;;6.43;4.50;;;6.50;99.90;;;;;;5048558;28;20414;-55
2024/02/04 07:38:28;;;;;;;9.73;4.03;;;6.60;99.90;;;;;;5045082;28;20259;-58
2024/02/04 07:40:56;;;;;;;10.17;4.20;;;6.60;99.90;;;;;;5046192;28;20425;-59
2024/02/04 07:43:21;;;;;;;8.27;4.67;;;6.70;99.90;;;;;;5045424;28;20186;-58
2024/02/04 07:45:47;;;;;;;8.80;4.07;;;6.70;99.90;;;;;;5047618;28;20849;-59
2024/02/04 07:48:13;;;;;;;8.80;3.60;;;6.70;99.90;;;;;;5044516;28;20476;-59
2024/02/04 07:50:39;;;;;;;10.17;4.10;;;6.70;99.90;;;;;;5044929;28;20177;-59
2024/02/04 07:53:05;;;;;;;10.37;4.30;;;6.80;99.90;;;;;;5046206;28;20518;-59
2024/02/04 07:55:30;;;;;;;8.03;4.47;;;6.80;99.90;;;;;;5046364;28;20211;-59
2024/02/04 07:57:56;;;;;;;12.07;4.50;;;6.80;99.90;;;;;;5045959;28;20203;-59
2024/02/04 08:00:22;;;;;;;7.03;3.57;;;6.80;99.90;;;;;;5046060;28;20271;-59
2024/02/04 08:02:47;;;;;;;9.70;4.20;;;6.90;99.90;;;;;;5044786;28;20208;-60
